createdAt,value
2023-01-21T00:03:13.905Z,20.30
2023-01-21T00:08:16.757Z,20.26
2023-01-21T00:13:20.870Z,20.29
2023-01-21T00:18:23.594Z,20.29
2023-01-21T00:23:26.442Z,20.32
2023-01-21T00:28:31.199Z,20.27
2023-01-21T00:33:34.296Z,20.31
2023-01-21T00:38:37.263Z,20.24
2023-01-21T00:43:41.555Z,20.28
2023-01-21T00:48:44.380Z,20.24
2023-01-21T00:53:47.181Z,20.27
2023-01-21T00:58:51.400Z,20.26
2023-01-21T01:03:54.431Z,20.29
2023-01-21T01:08:58.454Z,20.29
2023-01-21T01:14:02.610Z,20.26
2023-01-21T01:19:05.446Z,20.21
2023-01-21T01:24:08.903Z,20.13
2023-01-21T01:29:14.217Z,20.03
2023-01-21T01:34:17.026Z,20.02
2023-01-21T01:39:19.847Z,19.89
2023-01-21T01:44:58.789Z,19.89
2023-01-21T01:50:01.594Z,19.86
2023-01-21T01:55:05.749Z,19.90
2023-01-21T02:00:12.213Z,19.93
2023-01-21T02:05:15.119Z,19.86
2023-01-21T02:10:20.924Z,19.93
2023-01-21T02:15:25.554Z,19.88
2023-01-21T02:20:59.426Z,19.91
2023-01-21T02:26:18.637Z,19.85
2023-01-21T02:31:58.540Z,19.78
2023-01-21T02:37:07.191Z,19.61
2023-01-21T02:42:13.524Z,19.53
2023-01-21T02:47:19.263Z,19.49
2023-01-21T02:52:24.521Z,19.50
2023-01-21T02:57:40.608Z,19.50
2023-01-21T03:03:16.522Z,19.62
2023-01-21T03:08:22.154Z,19.47
2023-01-21T03:13:41.729Z,19.41
2023-01-21T03:18:45.198Z,19.36
2023-01-21T03:23:49.778Z,19.35
2023-01-21T03:28:53.531Z,19.33
2023-01-21T03:33:57.445Z,19.28
2023-01-21T03:39:02.496Z,19.29
2023-01-21T03:44:05.294Z,19.24
2023-01-21T03:49:10.054Z,19.20
2023-01-21T03:54:14.188Z,19.17
2023-01-21T03:59:17.009Z,19.13
2023-01-21T04:04:19.863Z,19.09
2023-01-21T04:09:24.031Z,19.04
2023-01-21T04:14:26.785Z,19.02
2023-01-21T04:19:29.605Z,18.99
2023-01-21T04:24:34.751Z,18.96
2023-01-21T04:29:37.643Z,18.88
2023-01-21T04:34:40.443Z,18.86
2023-01-21T04:39:44.747Z,18.81
2023-01-21T04:44:47.576Z,18.77
2023-01-21T04:49:50.366Z,18.73
2023-01-21T04:54:54.586Z,18.70
2023-01-21T04:59:57.384Z,18.66
2023-01-21T05:05:00.280Z,18.64
2023-01-21T05:10:05.083Z,18.54
2023-01-21T05:15:09.229Z,18.59
2023-01-21T05:20:12.547Z,18.56
2023-01-21T05:25:16.853Z,18.55
2023-01-21T05:30:19.707Z,18.53
2023-01-21T05:35:23.073Z,18.51
2023-01-21T05:40:27.266Z,18.49
2023-01-21T05:45:30.080Z,18.48
2023-01-21T05:50:33.641Z,18.43
2023-01-21T05:55:39.123Z,18.42
2023-01-21T06:00:42.636Z,18.38
2023-01-21T06:05:45.441Z,18.37
2023-01-21T06:10:49.599Z,18.36
2023-01-21T06:15:55.301Z,18.35
2023-01-21T06:21:00.054Z,18.32
2023-01-21T06:26:04.234Z,18.31
2023-01-21T06:31:07.140Z,18.27
2023-01-21T06:36:10.594Z,18.25
2023-01-21T06:41:14.727Z,18.24
2023-01-21T06:46:17.527Z,18.26
2023-01-21T06:51:20.434Z,18.15
2023-01-21T06:56:24.701Z,18.24
2023-01-21T07:01:27.652Z,18.23
2023-01-21T07:06:30.525Z,18.23
2023-01-21T07:11:34.864Z,18.22
2023-01-21T07:16:37.782Z,18.20
2023-01-21T07:21:41.671Z,18.19
2023-01-21T07:26:45.799Z,18.17
2023-01-21T07:31:48.581Z,18.14
2023-01-21T07:36:51.631Z,18.12
2023-01-21T07:41:55.876Z,18.11
2023-01-21T07:46:58.782Z,18.10
2023-01-21T07:52:01.571Z,18.05
2023-01-21T07:57:05.786Z,18.05
2023-01-21T08:02:08.732Z,17.71
2023-01-21T08:07:13.271Z,15.00
2023-01-21T08:12:17.900Z,16.42
2023-01-21T08:17:20.630Z,17.15
2023-01-21T08:22:23.402Z,17.66
2023-01-21T08:27:27.715Z,18.01
2023-01-21T08:32:31.045Z,18.30
2023-01-21T08:37:33.817Z,18.49
2023-01-21T08:42:37.972Z,18.66
2023-01-21T08:47:40.766Z,18.78
2023-01-21T08:52:43.606Z,18.91
2023-01-21T08:57:52.006Z,19.03
2023-01-21T09:02:55.051Z,19.14
2023-01-21T09:07:58.309Z,19.23
2023-01-21T09:13:06.015Z,19.32
2023-01-21T09:18:08.751Z,19.42
2023-01-21T09:23:25.112Z,19.48
2023-01-21T09:28:29.952Z,19.57
2023-01-21T09:33:33.299Z,19.63
2023-01-21T09:38:36.103Z,19.69
2023-01-21T09:43:41.509Z,19.77
2023-01-21T09:48:46.112Z,19.82
2023-01-21T09:53:50.566Z,19.87
2023-01-21T09:58:58.427Z,19.91
2023-01-21T10:04:03.941Z,19.96
2023-01-21T10:09:17.969Z,20.00
2023-01-21T10:14:30.630Z,20.02
2023-01-21T10:19:36.648Z,20.04
2023-01-21T10:24:41.514Z,20.09
2023-01-21T10:29:45.701Z,20.13
2023-01-21T10:34:51.454Z,20.18
2023-01-21T10:39:57.906Z,20.19
2023-01-21T10:45:05.762Z,20.20
2023-01-21T10:50:18.174Z,20.20
2023-01-21T10:55:26.173Z,20.23
2023-01-21T11:00:33.041Z,20.24
2023-01-21T11:05:36.077Z,20.20
2023-01-21T11:10:39.151Z,20.35
2023-01-21T11:15:45.511Z,20.39
2023-01-21T11:20:48.739Z,20.36
2023-01-21T11:25:51.494Z,20.44
2023-01-21T11:31:03.950Z,20.46
2023-01-21T11:36:14.561Z,20.48
2023-01-21T11:41:22.274Z,20.55
2023-01-21T11:46:31.276Z,20.58
2023-01-21T11:51:34.096Z,20.62
2023-01-21T11:56:36.890Z,20.61
2023-01-21T12:01:41.024Z,20.61
2023-01-21T12:06:46.017Z,20.62
2023-01-21T12:11:51.898Z,20.61
2023-01-21T12:17:00.345Z,20.67
2023-01-21T12:22:21.159Z,20.66
2023-01-21T12:27:27.223Z,20.59
2023-01-21T12:32:32.768Z,20.60
2023-01-21T12:37:37.536Z,20.56
2023-01-21T12:42:43.422Z,20.53
2023-01-21T12:47:49.211Z,20.54
2023-01-21T12:52:58.409Z,20.55
2023-01-21T12:58:03.658Z,20.60
2023-01-21T13:03:21.314Z,20.57
2023-01-21T13:08:32.630Z,20.54
2023-01-21T13:13:36.481Z,20.59
2023-01-21T13:18:42.369Z,20.49
2023-01-21T13:23:47.285Z,20.56
2023-01-21T13:28:53.836Z,20.54
2023-01-21T13:34:00.715Z,20.55
2023-01-21T13:39:05.307Z,20.56
2023-01-21T13:44:20.267Z,20.55
2023-01-21T13:49:43.512Z,20.59
2023-01-21T13:54:59.558Z,20.61
2023-01-21T14:00:03.907Z,20.62
2023-01-21T14:05:17.719Z,20.62
2023-01-21T14:10:24.458Z,20.62
2023-01-21T14:15:34.162Z,20.63
2023-01-21T14:20:59.049Z,20.63
2023-01-21T14:26:09.602Z,20.68
2023-01-21T14:31:14.238Z,20.66
2023-01-21T14:36:19.542Z,20.68
2023-01-21T14:41:22.324Z,20.69
2023-01-21T14:46:32.737Z,20.75
2023-01-21T14:51:37.791Z,20.73
2023-01-21T14:56:40.567Z,20.75
2023-01-21T15:01:44.524Z,20.68
2023-01-21T15:06:48.615Z,20.68
2023-01-21T15:11:52.849Z,20.70
2023-01-21T15:16:55.652Z,20.69
2023-01-21T15:22:41.903Z,20.74
2023-01-21T15:28:32.788Z,20.86
2023-01-21T15:33:45.513Z,20.90
2023-01-21T15:38:50.313Z,20.99
2023-01-21T15:43:59.592Z,21.00
2023-01-21T15:49:07.098Z,21.02
2023-01-21T15:54:20.549Z,21.08
2023-01-21T15:59:40.644Z,21.14
2023-01-21T16:04:48.054Z,21.17
2023-01-21T16:09:59.988Z,21.21
2023-01-21T16:15:08.156Z,21.27
2023-01-21T16:20:11.634Z,21.30
2023-01-21T16:25:17.564Z,21.36
2023-01-21T16:30:22.184Z,21.41
2023-01-21T16:35:24.975Z,21.44
2023-01-21T16:40:30.478Z,21.51
2023-01-21T16:45:33.329Z,21.54
2023-01-21T16:50:36.149Z,21.58
2023-01-21T16:55:44.866Z,21.63
2023-01-21T17:00:50.198Z,21.66
2023-01-21T17:05:53.114Z,21.70
2023-01-21T17:10:59.321Z,21.73
2023-01-21T17:16:02.547Z,21.74
2023-01-21T17:21:07.186Z,21.73
2023-01-21T17:26:16.193Z,21.73
2023-01-21T17:31:23.200Z,21.72
2023-01-21T17:36:31.639Z,21.68
2023-01-21T17:41:37.619Z,21.67
2023-01-21T17:46:45.068Z,21.66
2023-01-21T17:51:47.889Z,21.66
2023-01-21T17:56:52.798Z,21.59
2023-01-21T18:01:56.740Z,21.59
2023-01-21T18:06:59.560Z,21.57
2023-01-21T18:12:03.917Z,21.57
2023-01-21T18:17:06.818Z,21.58
2023-01-21T18:22:15.989Z,21.59
2023-01-21T18:27:20.633Z,21.56
2023-01-21T18:32:23.607Z,21.55
2023-01-21T18:37:26.758Z,21.54
2023-01-21T18:42:31.046Z,21.50
2023-01-21T18:47:33.783Z,21.50
2023-01-21T18:52:36.568Z,21.51
2023-01-21T18:57:41.094Z,21.51
2023-01-21T19:02:44.177Z,21.43
2023-01-21T19:07:46.956Z,21.48
2023-01-21T19:12:51.282Z,21.49
2023-01-21T19:17:54.071Z,21.47
2023-01-21T19:22:56.903Z,21.47
2023-01-21T19:28:02.006Z,21.46
2023-01-21T19:33:05.246Z,21.47
2023-01-21T19:38:11.631Z,21.44
2023-01-21T19:43:17.593Z,21.48
2023-01-21T19:48:21.996Z,21.47
2023-01-21T19:53:24.743Z,21.48
2023-01-21T19:58:29.904Z,21.46
2023-01-21T20:03:32.618Z,21.46
2023-01-21T20:08:35.456Z,21.44
2023-01-21T20:13:39.669Z,21.45
2023-01-21T20:18:42.443Z,21.45
2023-01-21T20:23:45.563Z,21.45
2023-01-21T20:28:51.320Z,21.45
2023-01-21T20:33:54.205Z,21.43
2023-01-21T20:38:57.182Z,21.44
2023-01-21T20:44:03.431Z,21.42
2023-01-21T20:49:06.182Z,21.42
2023-01-21T20:54:09.007Z,21.43
2023-01-21T20:59:14.345Z,21.42
2023-01-21T21:04:17.463Z,21.45
2023-01-21T21:09:22.166Z,21.45
2023-01-21T21:14:26.525Z,21.43
2023-01-21T21:19:29.346Z,21.43
2023-01-21T21:24:32.347Z,21.41
2023-01-21T21:29:36.591Z,21.44
2023-01-21T21:34:39.782Z,21.41
2023-01-21T21:39:42.682Z,21.42
2023-01-21T21:44:46.846Z,21.41
2023-01-21T21:49:49.589Z,21.41
2023-01-21T21:54:54.173Z,21.41
2023-01-21T21:59:58.402Z,21.39
2023-01-21T22:05:01.645Z,21.41
2023-01-21T22:10:04.691Z,21.42
2023-01-21T22:15:10.233Z,21.39
2023-01-21T22:20:13.381Z,21.42
2023-01-21T22:25:16.573Z,21.39
2023-01-21T22:30:21.137Z,21.42
2023-01-21T22:35:24.807Z,21.42
2023-01-21T22:40:27.700Z,21.38
2023-01-21T22:45:32.002Z,21.41
2023-01-21T22:50:34.970Z,21.40
2023-01-21T22:55:38.190Z,21.39
2023-01-21T23:00:42.339Z,21.39
2023-01-21T23:05:45.178Z,21.38
2023-01-21T23:10:48.429Z,21.39
2023-01-21T23:15:52.595Z,21.39
2023-01-21T23:20:55.487Z,21.39
2023-01-21T23:25:58.260Z,21.39
2023-01-21T23:31:06.111Z,21.38
2023-01-21T23:36:11.252Z,21.36
2023-01-21T23:41:17.034Z,21.39
2023-01-21T23:46:21.337Z,21.35
2023-01-21T23:51:24.291Z,21.34
2023-01-21T23:56:27.289Z,21.35
